La Tontouta International Airport
NWWW : now visible

Airfield :











YOU CAN JOIN US ON...

 
LOGIN :

Register | Disclaimer

   EN    FR    IT 

 









Legend :    VFR   Marginal VFR   IFR   Intensive IFR   Very Intensive IFR
Visi :
Ceiling :
>= 8 km
>= 3000ft
5 to 8 km
1000 to 3000 ft
1500m to 5 km
500 to 1000 ft
800 to 1500m
200 to 500 ft
< 800m
< 200 ft
Symbols :   Thunderstorms  Fog  Heavy snow  Heavy precipitations  Wind > 20 kt






- Airport Elevation : 52 ft
- IATA code : NOU


NWWW - La Tontouta International

CURRENT METAR :
  • 170030Z AUTO 13015KT 9999 FEW066 32/20 Q1008 NOSIG

EXPIRED METARs :
  • 170000Z AUTO 14014KT 110V180 9999 FEW048 31/19 Q1008 NOSIG
  • 162330Z AUTO 15014KT 9999 FEW049 BKN060 31/20 Q1008 NOSIG
  • 162300Z AUTO 10006KT 030V150 9999 BKN043 BKN056 31/20 Q1008 BECMG 14018KT
  • 162230Z AUTO 12004KT 050V190 9999 FEW040 30/20 Q1009 BECMG 14018KT
  • 162200Z AUTO 13004KT 080V170 CAVOK 29/22 Q1009 BECMG 14018KT

TAF TAF NWWW
Valid from the 17 at 00:00 until the 18 at 00:00 UTC


162300Z 1700/1724 12015KT 9999 FEW040 SCT060
BECMG 1710/1712 VRB02KT
BECMG 1722/1724 13012KT



MET'MAP, your aeronautical weather chart ! - Copyright ORBIFLY December 2007 - Disclaimer

ORBIFLY MET'MAP TEAM :

Programming & Development : Alexandra Zaïnal
Concept & original design : Baudouin d'Aumeries
Assistance for programming : Marc-Olivier Méhu
Technical & hardware support : Manuel Goepfert

Contact : metmap@orbifly.com




SOURCES & CREDITS :

   NOAA       Earth
Advisory